Time;durP1;ratioP1;P1;durP2;ratioP2;P2;SDS_P1;SDS_P2;PMS_P1;PMS_P2;Temp;Humidity;BMP_temperature;BMP_pressure;BME280_temperature;BME280_humidity;BME280_pressure;Samples;Min_cycle;Max_cycle;Signal;HPM_P1;HPM_P2
2023/01/15 00:02:06;;;;;;;15.57;2.53;;;7.60;99.90;;;;;;5023352;28;20272;-69
2023/01/15 00:04:32;;;;;;;10.33;2.00;;;7.60;99.90;;;;;;5028956;28;20287;-69
2023/01/15 00:06:59;;;;;;;9.90;2.70;;;7.50;99.90;;;;;;5024228;28;20806;-69
2023/01/15 00:09:26;;;;;;;5.53;2.20;;;7.50;99.90;;;;;;5024244;28;20301;-70
2023/01/15 00:11:53;;;;;;;5.87;2.17;;;7.50;99.90;;;;;;5028505;28;20198;-69
2023/01/15 00:14:20;;;;;;;13.00;2.20;;;7.50;99.90;;;;;;5022765;28;20208;-69
2023/01/15 00:16:51;;;;;;;8.37;2.70;;;7.60;99.90;;;;;;5026735;28;20241;-69
2023/01/15 00:19:18;;;;;;;7.50;2.33;;;7.50;99.90;;;;;;5025005;28;20203;-69
2023/01/15 00:21:44;;;;;;;9.90;2.73;;;7.50;99.90;;;;;;5027087;28;20264;-68
2023/01/15 00:29:42;;;;;;;9.03;2.00;;;7.50;99.90;;;;;;5025532;28;20210;-69
2023/01/15 00:32:09;;;;;;;9.37;2.40;;;7.50;99.90;;;;;;5024789;28;20217;-68
2023/01/15 00:34:38;;;;;;;10.53;2.37;;;7.50;99.90;;;;;;5030887;28;20228;-69
2023/01/15 00:37:05;;;;;;;10.47;2.13;;;7.40;99.90;;;;;;5022318;28;20234;-69
2023/01/15 00:39:33;;;;;;;11.50;2.07;;;7.50;99.90;;;;;;5023950;28;20332;-69
2023/01/15 00:42:00;;;;;;;6.57;2.37;;;7.40;99.90;;;;;;5024027;28;20694;-69
2023/01/15 00:44:26;;;;;;;8.37;2.03;;;7.40;99.90;;;;;;5021633;28;20392;-69
2023/01/15 00:46:53;;;;;;;10.00;2.00;;;7.40;99.90;;;;;;5024798;28;20313;-69
2023/01/15 00:49:20;;;;;;;12.83;2.37;;;7.40;99.90;;;;;;5024738;28;20740;-69
2023/01/15 00:51:50;;;;;;;12.53;2.60;;;7.40;99.90;;;;;;5027045;28;20565;-69
2023/01/15 00:54:17;;;;;;;11.60;2.53;;;7.50;99.90;;;;;;5025010;28;20237;-69
2023/01/15 00:56:43;;;;;;;7.67;2.17;;;7.40;99.90;;;;;;5022141;28;20234;-69
2023/01/15 00:59:11;;;;;;;12.90;2.73;;;7.40;99.90;;;;;;5023050;28;20233;-69
2023/01/15 01:01:38;;;;;;;10.00;2.97;;;7.40;99.90;;;;;;5022704;28;20223;-68
2023/01/15 01:04:05;;;;;;;11.00;3.33;;;7.40;99.90;;;;;;5024279;28;20232;-68
2023/01/15 01:06:31;;;;;;;8.43;2.20;;;7.50;99.90;;;;;;5020639;28;20276;-68
2023/01/15 01:08:58;;;;;;;8.57;1.97;;;7.40;99.90;;;;;;5023195;28;20268;-68
2023/01/15 01:11:25;;;;;;;15.40;3.17;;;7.40;99.90;;;;;;5025927;28;20365;-69
2023/01/15 01:13:55;;;;;;;11.33;1.87;;;7.40;99.90;;;;;;5022561;28;20285;-69
2023/01/15 01:16:30;;;;;;;16.43;3.53;;;7.40;99.90;;;;;;5019951;28;20237;-68
2023/01/15 01:19:00;;;;;;;14.80;3.60;;;7.40;99.90;;;;;;5027989;28;20244;-68
2023/01/15 01:21:27;;;;;;;12.03;2.57;;;7.40;99.90;;;;;;5018038;28;20637;-68
2023/01/15 01:23:54;;;;;;;14.30;2.80;;;7.40;99.90;;;;;;5024816;28;20320;-68
2023/01/15 01:26:20;;;;;;;13.50;2.43;;;7.40;99.90;;;;;;5025705;28;20292;-68
2023/01/15 01:28:52;;;;;;;8.90;2.60;;;7.40;99.90;;;;;;5022815;28;20209;-68
2023/01/15 01:31:19;;;;;;;12.40;2.87;;;7.40;99.90;;;;;;5024534;28;20318;-68
2023/01/15 01:33:50;;;;;;;16.70;2.60;;;7.40;99.90;;;;;;5022733;28;20206;-68
2023/01/15 01:36:17;;;;;;;8.67;2.33;;;7.40;99.90;;;;;;5032824;28;20651;-69
2023/01/15 01:38:48;;;;;;;11.63;2.30;;;7.50;99.90;;;;;;5028105;28;20202;-69
2023/01/15 01:41:16;;;;;;;9.50;2.30;;;7.40;99.90;;;;;;5025120;28;20210;-68
2023/01/15 01:44:28;;;;;;;13.60;2.47;;;7.50;99.90;;;;;;5025813;28;20290;-69
2023/01/15 01:46:54;;;;;;;7.13;2.27;;;7.40;99.90;;;;;;5010609;28;20219;-68
2023/01/15 01:49:22;;;;;;;16.73;2.30;;;7.40;99.90;;;;;;5032135;28;20309;-68
2023/01/15 01:51:55;;;;;;;7.67;2.20;;;7.40;99.90;;;;;;5028460;28;20204;-69
2023/01/15 01:54:25;;;;;;;20.03;2.83;;;7.40;99.90;;;;;;5025876;28;20194;-68
2023/01/15 01:56:52;;;;;;;12.63;2.83;;;7.40;99.90;;;;;;5033884;28;20233;-70
2023/01/15 01:59:22;;;;;;;12.13;2.40;;;7.40;99.90;;;;;;5024566;28;20272;-70
2023/01/15 02:01:50;;;;;;;10.67;3.53;;;7.50;99.90;;;;;;5032434;28;20351;-70
2023/01/15 02:04:20;;;;;;;12.40;2.53;;;7.40;99.90;;;;;;5028409;28;20578;-69
2023/01/15 02:06:47;;;;;;;11.10;3.03;;;7.50;99.90;;;;;;5029067;28;20594;-70
2023/01/15 02:09:13;;;;;;;13.50;2.50;;;7.40;99.90;;;;;;5031553;28;20201;-70
2023/01/15 02:11:41;;;;;;;8.57;1.80;;;7.40;99.90;;;;;;5030798;28;20208;-69
2023/01/15 02:14:16;;;;;;;14.47;2.90;;;7.40;99.90;;;;;;5025567;28;21230;-69
2023/01/15 02:17:01;;;;;;;12.67;2.37;;;7.40;99.90;;;;;;5032081;28;20244;-69
2023/01/15 02:19:47;;;;;;;14.27;2.87;;;7.40;99.90;;;;;;5027564;28;20242;-69
2023/01/15 02:22:37;;;;;;;12.57;2.60;;;7.40;99.90;;;;;;5027379;28;20382;-69
2023/01/15 02:25:14;;;;;;;11.73;3.40;;;7.40;99.90;;;;;;5028360;28;20245;-69
2023/01/15 02:27:46;;;;;;;16.27;2.50;;;7.40;99.90;;;;;;5024725;28;20668;-69
2023/01/15 02:30:25;;;;;;;9.43;2.30;;;7.40;99.90;;;;;;5036420;28;20294;-70
2023/01/15 02:32:57;;;;;;;9.83;2.40;;;7.40;99.90;;;;;;5024664;28;20213;-69
2023/01/15 02:35:35;;;;;;;15.47;2.73;;;7.40;99.90;;;;;;5026608;28;20222;-69
2023/01/15 02:38:06;;;;;;;11.07;2.40;;;7.30;99.90;;;;;;5030405;28;20612;-69
2023/01/15 02:40:35;;;;;;;15.33;2.87;;;7.30;99.90;;;;;;5025753;28;20230;-69
2023/01/15 02:43:05;;;;;;;9.50;2.03;;;7.30;99.90;;;;;;5027942;28;20300;-69
2023/01/15 02:45:35;;;;;;;14.37;2.73;;;7.30;99.90;;;;;;5029805;28;20312;-69
2023/01/15 02:48:07;;;;;;;7.97;2.27;;;7.30;99.90;;;;;;5029234;28;20494;-68
2023/01/15 02:50:39;;;;;;;12.47;2.40;;;7.30;99.90;;;;;;5032507;28;20350;-69
2023/01/15 02:53:10;;;;;;;11.07;3.00;;;7.30;99.90;;;;;;5023029;28;20233;-69
2023/01/15 02:55:42;;;;;;;12.37;2.40;;;7.30;99.90;;;;;;5026694;28;20236;-69
2023/01/15 02:58:22;;;;;;;11.93;3.37;;;7.30;99.90;;;;;;5030256;28;20570;-69
2023/01/15 03:00:52;;;;;;;19.57;3.33;;;7.30;99.90;;;;;;5022598;28;20299;-68
2023/01/15 03:03:35;;;;;;;10.23;2.37;;;7.20;99.90;;;;;;5031414;28;20255;-69
2023/01/15 03:06:26;;;;;;;9.10;2.13;;;7.20;99.90;;;;;;5023906;28;20194;-69
2023/01/15 03:08:53;;;;;;;11.47;2.23;;;7.20;99.90;;;;;;5021473;28;20297;-69
2023/01/15 03:11:20;;;;;;;10.83;2.50;;;7.20;99.90;;;;;;5026505;28;20224;-68
2023/01/15 03:13:52;;;;;;;12.60;2.27;;;7.20;99.90;;;;;;5025161;28;20223;-69
2023/01/15 03:16:37;;;;;;;12.33;2.60;;;7.20;99.90;;;;;;5027462;28;20251;-70
2023/01/15 03:19:08;;;;;;;7.27;1.90;;;7.10;99.90;;;;;;5025902;28;20201;-69
2023/01/15 03:21:53;;;;;;;10.33;2.10;;;7.10;99.90;;;;;;5026029;28;20206;-69
2023/01/15 03:24:39;;;;;;;12.97;2.57;;;7.20;99.90;;;;;;5028204;28;20198;-69
2023/01/15 03:27:06;;;;;;;7.73;2.23;;;7.10;99.90;;;;;;5025833;28;20206;-69
2023/01/15 03:29:37;;;;;;;12.83;2.30;;;7.10;99.90;;;;;;5025530;28;20292;-69
2023/01/15 03:32:05;;;;;;;8.07;2.60;;;7.10;99.90;;;;;;5022344;28;20673;-69
2023/01/15 03:34:45;;;;;;;10.87;2.03;;;7.10;99.90;;;;;;5029282;28;20208;-69
2023/01/15 03:37:12;;;;;;;11.70;2.47;;;7.10;99.90;;;;;;5025509;28;20268;-69
2023/01/15 03:39:40;;;;;;;9.33;2.60;;;7.10;99.90;;;;;;5030020;28;20225;-69
2023/01/15 03:42:07;;;;;;;8.90;2.13;;;7.00;99.90;;;;;;5022053;28;20216;-69
2023/01/15 03:45:11;;;;;;;9.00;2.07;;;7.00;99.90;;;;;;5015415;28;20217;-69
2023/01/15 03:48:09;;;;;;;8.77;1.80;;;7.00;99.90;;;;;;5020767;28;20253;-68
2023/01/15 03:50:46;;;;;;;6.83;2.17;;;7.10;99.90;;;;;;5027382;28;20256;-68
2023/01/15 03:53:16;;;;;;;13.00;2.53;;;7.10;99.90;;;;;;5027433;28;20615;-68
2023/01/15 03:56:04;;;;;;;13.30;3.30;;;7.10;99.90;;;;;;5023466;28;20228;-69
2023/01/15 03:58:52;;;;;;;12.77;3.17;;;7.10;99.90;;;;;;5028603;28;20200;-69
2023/01/15 04:01:25;;;;;;;8.93;2.60;;;7.10;99.90;;;;;;5028034;28;20310;-69
2023/01/15 04:03:54;;;;;;;9.73;1.83;;;7.10;99.90;;;;;;5022440;28;20256;-69
2023/01/15 04:06:23;;;;;;;10.37;1.90;;;7.10;99.90;;;;;;5023817;28;20537;-69
2023/01/15 04:08:51;;;;;;;12.20;2.47;;;7.00;99.90;;;;;;5020875;28;20210;-69
2023/01/15 04:11:25;;;;;;;12.70;1.90;;;7.00;99.90;;;;;;5026288;28;20207;-69
2023/01/15 04:13:53;;;;;;;7.67;2.87;;;7.00;99.90;;;;;;5024698;28;20380;-69
2023/01/15 04:16:31;;;;;;;9.53;2.17;;;7.00;99.90;;;;;;5022822;28;20273;-68
2023/01/15 04:18:58;;;;;;;8.97;2.97;;;6.90;99.90;;;;;;5020677;28;20214;-69
2023/01/15 04:21:25;;;;;;;12.20;2.07;;;6.90;99.90;;;;;;5017084;28;20304;-67
2023/01/15 04:23:52;;;;;;;11.90;2.30;;;7.00;99.90;;;;;;5025100;28;20213;-67
2023/01/15 04:26:19;;;;;;;11.70;3.57;;;6.90;99.90;;;;;;5025594;28;20291;-68
2023/01/15 04:28:45;;;;;;;10.73;2.80;;;6.90;99.90;;;;;;5031555;28;20205;-68
2023/01/15 04:31:12;;;;;;;14.60;2.63;;;6.90;99.90;;;;;;5020154;28;20717;-68
2023/01/15 04:33:39;;;;;;;10.13;2.10;;;6.90;99.90;;;;;;5020211;28;20214;-70
2023/01/15 04:36:07;;;;;;;14.83;2.83;;;6.90;99.90;;;;;;5027465;28;20247;-69
2023/01/15 04:38:36;;;;;;;11.43;2.50;;;6.90;99.90;;;;;;5023015;28;20245;-68
2023/01/15 04:44:07;;;;;;;8.43;2.60;;;6.90;99.90;;;;;;5022850;28;20245;-68
2023/01/15 04:46:37;;;;;;;9.53;2.00;;;6.90;99.90;;;;;;5021910;28;20218;-70
2023/01/15 04:49:10;;;;;;;9.47;2.13;;;6.90;99.90;;;;;;5024704;28;20241;-69
2023/01/15 04:51:38;;;;;;;10.67;2.37;;;6.80;99.90;;;;;;5017039;28;20234;-69
2023/01/15 04:54:06;;;;;;;13.70;2.00;;;6.80;99.90;;;;;;5026392;28;20239;-71
2023/01/15 04:56:45;;;;;;;15.87;2.20;;;6.80;99.90;;;;;;5018984;28;20342;-68
2023/01/15 04:59:13;;;;;;;13.30;2.37;;;6.80;99.90;;;;;;5022699;28;20198;-68
2023/01/15 05:01:40;;;;;;;10.77;2.13;;;6.90;99.90;;;;;;5016693;28;20302;-69
2023/01/15 05:04:20;;;;;;;8.13;2.27;;;6.90;99.90;;;;;;5029431;28;20220;-69
2023/01/15 05:06:46;;;;;;;11.67;2.23;;;6.90;99.90;;;;;;5027568;28;20227;-67
2023/01/15 05:09:13;;;;;;;9.90;2.17;;;6.90;99.90;;;;;;5025516;28;20206;-68
2023/01/15 05:11:40;;;;;;;8.33;2.00;;;6.90;99.90;;;;;;5030794;28;20678;-69
2023/01/15 05:14:07;;;;;;;14.23;2.10;;;7.00;99.90;;;;;;5024635;28;20281;-67
2023/01/15 05:16:34;;;;;;;10.33;2.00;;;7.00;99.90;;;;;;5027999;28;20228;-68
2023/01/15 05:19:03;;;;;;;10.60;2.07;;;7.00;99.90;;;;;;5028002;28;20198;-68
2023/01/15 05:21:33;;;;;;;9.60;2.47;;;6.90;99.90;;;;;;5028178;28;20209;-68
2023/01/15 05:24:02;;;;;;;11.10;2.30;;;6.90;99.90;;;;;;5026969;28;20216;-68
2023/01/15 05:26:31;;;;;;;9.27;2.23;;;6.90;99.90;;;;;;5021127;28;20345;-68
2023/01/15 05:28:59;;;;;;;9.63;2.43;;;6.80;99.90;;;;;;5025144;28;20220;-68
2023/01/15 05:31:27;;;;;;;10.30;2.20;;;6.80;99.90;;;;;;5024461;28;20698;-68
2023/01/15 05:33:54;;;;;;;16.73;2.53;;;6.80;99.90;;;;;;5029138;28;20212;-68
2023/01/15 05:36:29;;;;;;;13.47;2.27;;;6.80;99.90;;;;;;5027187;28;20299;-68
2023/01/15 05:39:00;;;;;;;8.57;2.43;;;6.80;99.90;;;;;;5025483;28;20255;-69
2023/01/15 05:44:25;;;;;;;10.77;2.17;;;6.70;99.90;;;;;;5018684;28;20212;-68
2023/01/15 05:46:54;;;;;;;9.70;2.27;;;6.70;99.90;;;;;;5025099;28;20257;-68
2023/01/15 05:49:23;;;;;;;6.83;1.87;;;6.70;99.90;;;;;;5024459;28;20289;-68
2023/01/15 05:51:51;;;;;;;8.40;2.30;;;6.70;99.90;;;;;;5028877;28;20632;-69
2023/01/15 05:54:23;;;;;;;9.77;1.90;;;6.70;99.90;;;;;;5024359;28;20264;-69
2023/01/15 05:56:50;;;;;;;11.83;2.40;;;6.60;99.90;;;;;;5022327;28;20743;-68
2023/01/15 05:59:19;;;;;;;16.27;2.97;;;6.70;99.90;;;;;;5023763;28;20210;-68
2023/01/15 06:01:46;;;;;;;11.43;2.27;;;6.70;99.90;;;;;;5023362;28;20264;-67
2023/01/15 06:04:14;;;;;;;8.47;3.37;;;6.60;99.90;;;;;;5026474;28;20216;-68
2023/01/15 06:06:41;;;;;;;8.03;1.93;;;6.60;99.90;;;;;;5022672;28;20537;-69
2023/01/15 06:09:09;;;;;;;11.10;2.20;;;6.70;99.90;;;;;;5027748;28;20297;-69
2023/01/15 06:11:36;;;;;;;10.30;3.00;;;6.70;99.90;;;;;;5019772;28;20574;-69
2023/01/15 06:14:02;;;;;;;11.07;2.70;;;6.60;99.90;;;;;;5021783;28;20293;-69
2023/01/15 06:16:29;;;;;;;11.20;2.90;;;6.60;99.90;;;;;;5028466;28;20322;-69
2023/01/15 06:19:00;;;;;;;12.53;2.23;;;6.60;99.90;;;;;;5026223;28;20301;-69
2023/01/15 06:21:27;;;;;;;6.73;2.40;;;6.50;99.90;;;;;;5026479;28;20215;-69
2023/01/15 06:23:54;;;;;;;9.30;2.37;;;6.50;99.90;;;;;;5028229;28;20284;-70
2023/01/15 06:26:21;;;;;;;8.27;2.50;;;6.50;99.90;;;;;;5027983;28;20201;-68
2023/01/15 06:28:47;;;;;;;13.40;2.77;;;6.50;99.90;;;;;;5028246;28;20207;-68
2023/01/15 06:31:17;;;;;;;11.03;2.30;;;6.50;99.90;;;;;;5026492;28;20217;-68
2023/01/15 06:33:44;;;;;;;9.30;2.90;;;6.40;99.90;;;;;;5031732;28;20254;-69
2023/01/15 06:36:13;;;;;;;5.70;2.20;;;6.40;99.90;;;;;;5033311;28;20246;-69
2023/01/15 06:38:40;;;;;;;5.33;1.67;;;6.30;99.90;;;;;;5031406;28;20621;-67
2023/01/15 06:49:32;;;;;;;12.67;2.67;;;6.30;99.90;;;;;;5017817;28;20739;-68
2023/01/15 06:51:58;;;;;;;9.97;2.10;;;6.30;99.90;;;;;;5027143;28;20197;-69
2023/01/15 06:54:26;;;;;;;8.67;2.40;;;6.30;99.90;;;;;;5033139;28;20335;-69
2023/01/15 06:56:52;;;;;;;6.37;2.43;;;6.30;99.90;;;;;;5031240;28;20241;-68
2023/01/15 06:59:19;;;;;;;7.27;1.70;;;6.30;99.90;;;;;;5026385;28;20293;-69
2023/01/15 07:01:46;;;;;;;9.80;2.00;;;6.20;99.90;;;;;;5031867;28;20311;-69
2023/01/15 07:04:14;;;;;;;6.83;1.90;;;6.20;99.90;;;;;;5030283;28;20211;-69
2023/01/15 07:06:41;;;;;;;8.43;2.00;;;6.10;99.90;;;;;;5022810;28;20215;-68
2023/01/15 07:09:08;;;;;;;4.57;1.90;;;6.00;99.90;;;;;;5032179;28;20206;-68
2023/01/15 07:11:34;;;;;;;8.20;2.10;;;6.00;99.90;;;;;;5022946;28;20574;-68
2023/01/15 07:14:04;;;;;;;8.23;1.50;;;5.90;99.90;;;;;;5026749;28;20207;-69
2023/01/15 07:16:33;;;;;;;3.97;1.60;;;5.90;99.90;;;;;;5026337;28;20340;-67
2023/01/15 07:19:00;;;;;;;6.40;2.00;;;5.90;99.90;;;;;;5022124;28;20232;-68
2023/01/15 07:21:27;;;;;;;9.57;2.13;;;5.80;99.90;;;;;;5027047;28;20302;-69
2023/01/15 07:23:58;;;;;;;7.57;2.30;;;5.80;99.90;;;;;;5021300;28;20279;-69
2023/01/15 07:26:25;;;;;;;6.90;2.20;;;5.80;99.90;;;;;;5026327;28;20667;-70
2023/01/15 07:28:53;;;;;;;7.57;2.03;;;5.70;99.90;;;;;;5025982;28;20687;-68
2023/01/15 07:31:20;;;;;;;7.57;2.67;;;5.70;99.90;;;;;;5021526;28;20418;-69
2023/01/15 07:33:47;;;;;;;12.33;2.10;;;5.70;99.90;;;;;;5027788;28;20307;-68
2023/01/15 07:36:16;;;;;;;9.43;2.63;;;5.60;99.90;;;;;;5029570;28;20202;-68
2023/01/15 07:38:43;;;;;;;12.67;2.30;;;5.50;99.90;;;;;;5025787;28;20573;-68
2023/01/15 07:52:13;;;;;;;8.30;2.13;;;5.40;99.90;;;;;;5017250;28;20222;-68
2023/01/15 07:54:39;;;;;;;8.37;2.13;;;5.40;99.90;;;;;;5034199;28;20214;-69
2023/01/15 07:57:07;;;;;;;12.43;2.27;;;5.40;99.90;;;;;;5027753;28;20327;-69
2023/01/15 07:59:36;;;;;;;12.57;2.63;;;5.40;99.90;;;;;;5019362;28;20201;-69
2023/01/15 08:02:03;;;;;;;15.47;2.67;;;5.40;99.90;;;;;;5026797;28;20246;-69
2023/01/15 08:04:30;;;;;;;17.60;2.60;;;5.50;99.90;;;;;;5019359;28;20594;-69
2023/01/15 08:07:04;;;;;;;5.07;1.80;;;5.50;99.90;;;;;;5024976;28;20204;-68
2023/01/15 08:09:31;;;;;;;14.87;2.23;;;5.50;99.90;;;;;;5028237;28;20289;-68
2023/01/15 08:15:21;;;;;;;13.23;2.13;;;5.50;99.90;;;;;;5024040;28;20206;-68
2023/01/15 08:17:42;;;;;;;5.30;1.83;;;5.50;99.90;;;;;;5029817;28;20300;-69
2023/01/15 08:20:16;;;;;;;11.67;2.03;;;5.50;99.90;;;;;;5021723;28;20289;-68
2023/01/15 08:22:43;;;;;;;7.93;2.00;;;5.50;99.90;;;;;;5026269;28;20282;-68
2023/01/15 08:25:13;;;;;;;7.53;2.37;;;5.60;99.90;;;;;;5023677;28;20233;-69
2023/01/15 08:27:40;;;;;;;13.47;2.97;;;5.60;99.90;;;;;;5025387;28;20298;-68
2023/01/15 08:30:11;;;;;;;10.17;2.23;;;5.60;99.90;;;;;;5025553;28;20209;-69
2023/01/15 08:32:37;;;;;;;10.23;2.20;;;5.60;99.90;;;;;;5022132;28;20212;-68
2023/01/15 08:35:05;;;;;;;9.10;2.30;;;5.70;99.90;;;;;;5028505;28;20202;-67
2023/01/15 08:37:31;;;;;;;7.87;2.23;;;5.70;99.90;;;;;;5029672;28;20236;-68
2023/01/15 08:39:58;;;;;;;5.37;1.93;;;5.70;99.90;;;;;;5030073;28;20782;-69
2023/01/15 08:42:25;;;;;;;10.27;2.00;;;5.80;99.90;;;;;;5026944;28;20698;-69
2023/01/15 08:44:51;;;;;;;8.90;2.33;;;5.80;99.90;;;;;;5028535;28;20295;-70
2023/01/15 08:47:18;;;;;;;11.03;2.60;;;5.80;99.90;;;;;;5018417;28;20233;-70
2023/01/15 08:49:47;;;;;;;6.73;2.13;;;5.90;99.90;;;;;;5027667;28;20210;-68
2023/01/15 08:52:14;;;;;;;13.53;2.23;;;5.90;99.90;;;;;;5023772;28;20250;-68
2023/01/15 08:54:41;;;;;;;10.50;2.50;;;5.90;99.90;;;;;;5020362;28;20286;-68
2023/01/15 08:57:08;;;;;;;9.87;1.83;;;5.90;99.90;;;;;;5024339;28;21267;-68
2023/01/15 08:59:35;;;;;;;6.80;2.33;;;6.00;99.90;;;;;;5019080;28;20764;-68
2023/01/15 09:02:02;;;;;;;7.43;2.90;;;6.00;99.90;;;;;;5025451;28;20312;-68
2023/01/15 09:04:29;;;;;;;11.23;2.33;;;6.00;99.90;;;;;;5023592;28;20212;-71
2023/01/15 09:06:56;;;;;;;9.20;1.90;;;6.00;99.90;;;;;;5025585;28;20694;-68
2023/01/15 09:09:22;;;;;;;6.50;1.93;;;6.00;99.90;;;;;;5028471;28;20276;-68
2023/01/15 09:11:49;;;;;;;13.57;2.10;;;6.00;99.90;;;;;;5022337;28;20210;-68
2023/01/15 09:14:16;;;;;;;7.50;1.90;;;6.10;99.90;;;;;;5022989;28;20235;-68
2023/01/15 09:17:02;;;;;;;11.63;2.70;;;6.10;99.90;;;;;;5021308;28;20237;-68
2023/01/15 09:19:29;;;;;;;9.43;2.90;;;6.10;99.90;;;;;;5024312;28;20295;-68
2023/01/15 09:21:56;;;;;;;7.13;1.70;;;6.20;99.90;;;;;;5027585;28;20212;-68
2023/01/15 09:24:22;;;;;;;11.67;2.47;;;6.30;99.90;;;;;;5028589;28;20222;-68
2023/01/15 09:26:52;;;;;;;5.20;1.73;;;6.30;99.90;;;;;;5023608;28;20215;-68
2023/01/15 09:29:18;;;;;;;8.27;2.10;;;6.40;99.90;;;;;;5022048;28;20267;-68
2023/01/15 09:31:45;;;;;;;6.93;1.73;;;6.50;99.90;;;;;;5025636;28;20244;-68
2023/01/15 09:34:12;;;;;;;6.87;2.00;;;6.60;99.90;;;;;;5022928;28;20303;-69
2023/01/15 09:36:39;;;;;;;11.17;2.00;;;6.60;99.90;;;;;;5023682;28;20210;-70
2023/01/15 09:39:07;;;;;;;11.20;2.37;;;6.70;99.90;;;;;;5022119;28;20235;-68
2023/01/15 09:42:08;;;;;;;8.13;2.00;;;6.60;99.90;;;;;;5024483;28;20237;-69
2023/01/15 09:44:51;;;;;;;7.77;1.80;;;6.60;99.90;;;;;;5026714;28;20231;-69
2023/01/15 09:47:37;;;;;;;14.57;2.70;;;6.60;99.90;;;;;;5024982;28;20655;-68
2023/01/15 09:50:03;;;;;;;5.97;1.80;;;6.60;99.90;;;;;;5026725;28;20221;-69
2023/01/15 09:53:13;;;;;;;11.73;2.20;;;6.60;99.90;;;;;;5029833;28;20201;-67
2023/01/15 09:55:49;;;;;;;10.67;2.13;;;6.60;99.90;;;;;;5024627;28;20202;-69
2023/01/15 09:58:25;;;;;;;4.53;1.73;;;6.60;99.90;;;;;;5028637;28;20293;-69
2023/01/15 10:00:53;;;;;;;10.83;2.00;;;6.60;99.90;;;;;;5039918;28;20242;-68
2023/01/15 10:03:41;;;;;;;10.57;3.20;;;6.70;99.90;;;;;;5029973;28;20305;-68
2023/01/15 10:06:21;;;;;;;12.10;3.57;;;6.70;99.90;;;;;;5027527;28;20206;-68
2023/01/15 10:08:49;;;;;;;9.27;1.90;;;6.70;99.90;;;;;;5022724;28;20201;-69
2023/01/15 10:11:20;;;;;;;10.90;2.23;;;6.70;99.90;;;;;;5030565;28;20576;-69
2023/01/15 10:14:07;;;;;;;11.17;2.00;;;6.80;99.90;;;;;;5021463;28;20589;-70
2023/01/15 10:16:34;;;;;;;12.57;1.80;;;6.80;99.90;;;;;;5023173;28;20256;-68
2023/01/15 10:19:02;;;;;;;9.73;2.07;;;6.80;99.90;;;;;;5029760;28;20235;-69
2023/01/15 10:21:55;;;;;;;13.33;2.87;;;6.80;99.90;;;;;;5023664;28;20218;-69
2023/01/15 10:24:25;;;;;;;12.10;2.33;;;6.80;99.90;;;;;;5030443;28;20249;-69
2023/01/15 10:26:58;;;;;;;15.83;2.30;;;6.80;99.90;;;;;;5028688;28;20194;-70
2023/01/15 10:29:47;;;;;;;8.13;1.70;;;6.90;99.90;;;;;;5026246;28;20305;-69
2023/01/15 10:32:25;;;;;;;9.37;1.90;;;7.00;99.90;;;;;;5025048;28;20227;-70
2023/01/15 10:35:13;;;;;;;9.57;2.53;;;7.10;99.90;;;;;;5025373;28;20210;-69
2023/01/15 10:37:49;;;;;;;11.87;2.27;;;7.20;99.90;;;;;;5025322;28;20269;-69
2023/01/15 10:40:51;;;;;;;10.03;2.10;;;7.30;99.90;;;;;;5026747;28;20326;-69
2023/01/15 10:43:35;;;;;;;9.47;2.53;;;7.50;99.90;;;;;;5031135;28;20296;-68
2023/01/15 10:46:11;;;;;;;11.23;2.30;;;7.60;99.90;;;;;;5021635;28;20289;-70
2023/01/15 10:48:55;;;;;;;7.53;2.07;;;7.70;99.90;;;;;;5035986;28;20205;-69
2023/01/15 10:51:54;;;;;;;7.00;2.47;;;7.80;99.90;;;;;;5029274;28;20284;-69
2023/01/15 10:54:41;;;;;;;8.53;2.73;;;7.80;99.90;;;;;;5015943;28;20226;-69
2023/01/15 10:57:11;;;;;;;8.27;2.23;;;7.80;99.90;;;;;;5030532;28;20204;-69
2023/01/15 10:59:57;;;;;;;11.30;2.13;;;7.90;99.90;;;;;;5021858;28;20212;-69
2023/01/15 11:02:48;;;;;;;13.63;2.80;;;7.90;99.90;;;;;;5022730;28;20279;-69
2023/01/15 11:05:20;;;;;;;12.13;2.97;;;7.90;99.90;;;;;;5030285;28;20215;-69
2023/01/15 11:07:50;;;;;;;8.17;2.10;;;8.00;99.90;;;;;;5020969;28;20257;-69
2023/01/15 11:10:39;;;;;;;15.33;3.10;;;7.90;99.90;;;;;;5029446;28;20211;-69
2023/01/15 11:21:53;;;;;;;11.53;2.40;;;8.00;99.90;;;;;;5025114;28;20208;-70
2023/01/15 11:24:19;;;;;;;9.37;2.70;;;8.10;99.90;;;;;;5027330;28;20213;-69
2023/01/15 11:26:51;;;;;;;10.07;2.47;;;8.10;99.90;;;;;;5030693;28;20205;-69
2023/01/15 11:29:38;;;;;;;8.97;2.60;;;8.10;99.90;;;;;;5022521;28;20208;-70
2023/01/15 11:32:37;;;;;;;13.63;2.33;;;8.10;99.90;;;;;;5026570;28;20331;-68
2023/01/15 11:35:07;;;;;;;18.40;2.27;;;8.20;99.90;;;;;;5028712;28;20206;-69
2023/01/15 11:37:34;;;;;;;9.00;2.27;;;8.20;99.90;;;;;;5026328;28;20235;-68
2023/01/15 11:40:06;;;;;;;9.00;2.20;;;8.20;99.90;;;;;;5032376;28;20320;-68
2023/01/15 11:51:14;;;;;;;6.43;2.00;;;8.50;99.90;;;;;;5023641;28;20692;-69
2023/01/15 11:53:47;;;;;;;7.93;2.60;;;8.40;99.90;;;;;;5025387;28;20201;-70
2023/01/15 11:56:23;;;;;;;8.03;2.13;;;8.50;99.90;;;;;;5027199;28;20300;-70
2023/01/15 11:58:56;;;;;;;8.77;2.30;;;8.50;99.90;;;;;;5027884;28;20287;-68
2023/01/15 12:01:30;;;;;;;15.07;2.60;;;8.50;99.90;;;;;;5031546;28;20220;-68
2023/01/15 12:03:59;;;;;;;9.77;1.70;;;8.50;99.90;;;;;;5025108;28;20571;-69
2023/01/15 12:06:28;;;;;;;11.80;2.40;;;8.40;99.90;;;;;;5030291;28;20676;-69
2023/01/15 12:09:06;;;;;;;10.60;2.27;;;8.40;99.90;;;;;;5029396;28;20311;-70
2023/01/15 12:11:44;;;;;;;11.33;2.60;;;8.40;99.90;;;;;;5024598;28;20260;-68
2023/01/15 12:14:27;;;;;;;7.40;2.60;;;8.30;99.90;;;;;;5029674;28;20325;-69
2023/01/15 12:16:54;;;;;;;11.87;2.57;;;8.20;99.90;;;;;;5023682;28;20265;-69
2023/01/15 12:19:35;;;;;;;6.77;2.20;;;8.10;99.90;;;;;;5029602;28;20233;-69
2023/01/15 12:22:20;;;;;;;9.47;2.03;;;8.00;99.90;;;;;;5023448;28;20237;-68
2023/01/15 12:24:50;;;;;;;12.10;2.27;;;7.90;99.90;;;;;;5024506;28;20254;-69
2023/01/15 12:27:17;;;;;;;7.87;2.10;;;7.90;99.90;;;;;;5029868;28;20591;-70
2023/01/15 12:30:16;;;;;;;8.73;2.60;;;8.00;99.90;;;;;;5025351;28;20552;-70
2023/01/15 12:32:53;;;;;;;12.77;2.43;;;7.80;99.90;;;;;;5035883;28;20261;-69
2023/01/15 12:35:32;;;;;;;11.63;2.70;;;7.80;99.90;;;;;;5028702;28;20251;-69
2023/01/15 12:38:13;;;;;;;9.03;2.30;;;7.70;99.90;;;;;;5025081;28;20222;-70
2023/01/15 12:40:46;;;;;;;9.60;2.27;;;7.70;99.90;;;;;;5022146;28;20326;-69
2023/01/15 12:46:29;;;;;;;11.73;2.83;;;7.60;99.90;;;;;;5025318;28;20222;-68
2023/01/15 12:49:02;;;;;;;9.03;2.10;;;7.60;99.90;;;;;;5024144;28;20217;-69
2023/01/15 12:51:37;;;;;;;9.33;2.30;;;7.60;99.90;;;;;;5024795;28;20742;-68
2023/01/15 12:54:13;;;;;;;11.03;2.70;;;7.60;99.90;;;;;;5025836;28;20306;-69
2023/01/15 12:56:45;;;;;;;7.53;2.07;;;7.60;99.90;;;;;;5026743;28;20199;-69
2023/01/15 12:59:56;;;;;;;12.73;2.93;;;7.30;99.90;;;;;;5028154;28;20277;-69
2023/01/15 13:02:47;;;;;;;9.53;2.50;;;7.10;99.90;;;;;;5026877;28;20218;-69
2023/01/15 13:05:21;;;;;;;9.80;3.33;;;6.90;99.90;;;;;;5028063;28;20214;-68
2023/01/15 13:08:15;;;;;;;12.50;2.40;;;6.90;99.90;;;;;;5025344;28;20614;-67
2023/01/15 13:10:42;;;;;;;10.63;2.80;;;6.70;99.90;;;;;;5026658;28;20747;-67
2023/01/15 13:13:56;;;;;;;4.47;2.10;;;6.70;99.90;;;;;;5022618;28;20296;-67
2023/01/15 13:16:37;;;;;;;12.20;2.60;;;6.60;99.90;;;;;;5025486;28;20224;-67
2023/01/15 13:19:22;;;;;;;6.63;2.50;;;6.60;99.90;;;;;;5025728;28;20239;-68
2023/01/15 13:21:53;;;;;;;9.97;2.47;;;6.50;99.90;;;;;;5023484;28;20240;-67
2023/01/15 13:24:47;;;;;;;7.10;2.53;;;6.50;99.90;;;;;;5026201;28;20238;-68
2023/01/15 13:27:32;;;;;;;9.87;2.80;;;6.60;99.90;;;;;;5031795;28;20204;-67
2023/01/15 13:30:29;;;;;;;12.50;2.53;;;6.60;99.90;;;;;;5027810;28;20207;-68
2023/01/15 13:33:08;;;;;;;10.80;2.13;;;6.60;99.90;;;;;;5021794;28;20638;-66
2023/01/15 13:35:41;;;;;;;11.47;2.67;;;6.60;99.90;;;;;;5036785;28;20249;-66
2023/01/15 13:38:17;;;;;;;8.10;3.50;;;6.70;99.90;;;;;;5026433;28;20239;-69
2023/01/15 13:40:51;;;;;;;9.47;2.57;;;6.70;99.90;;;;;;5021830;28;20323;-68
2023/01/15 13:43:38;;;;;;;10.20;2.83;;;6.80;99.90;;;;;;5032935;28;20206;-68
2023/01/15 13:46:09;;;;;;;10.23;3.00;;;6.70;99.90;;;;;;5022912;28;20239;-68
2023/01/15 13:48:46;;;;;;;9.93;2.90;;;6.70;99.90;;;;;;5036965;28;20253;-69
2023/01/15 13:51:31;;;;;;;9.80;2.97;;;6.70;99.90;;;;;;5034864;28;20222;-68
2023/01/15 13:53:59;;;;;;;8.73;3.03;;;6.70;99.90;;;;;;5022487;28;20286;-69
2023/01/15 13:56:28;;;;;;;11.20;2.57;;;6.70;99.90;;;;;;5034907;28;20303;-68
2023/01/15 13:58:57;;;;;;;6.20;2.30;;;6.60;99.90;;;;;;5024952;28;20227;-69
2023/01/15 14:01:28;;;;;;;12.33;2.67;;;6.60;99.90;;;;;;5028009;28;20225;-68
2023/01/15 14:04:07;;;;;;;9.77;2.63;;;6.70;99.90;;;;;;5024804;28;20292;-69
2023/01/15 14:06:51;;;;;;;9.37;2.70;;;6.70;99.90;;;;;;5024953;28;20293;-67
2023/01/15 14:09:17;;;;;;;8.80;2.70;;;6.70;99.90;;;;;;5033752;28;20597;-69
2023/01/15 14:12:00;;;;;;;12.37;3.80;;;6.60;99.90;;;;;;5029152;28;20233;-67
2023/01/15 14:15:11;;;;;;;12.27;3.30;;;6.70;99.90;;;;;;5031952;28;20688;-70
2023/01/15 14:18:03;;;;;;;11.70;3.00;;;6.60;99.90;;;;;;4963673;28;20226;-67